Terminal Aerodrome Forecast
Issued by NWS

Home | Current Version | Previous Version | Text Only | Print | Product List | Glossary On
Versions: 1 2 3 4 5 6 7 8 9 10 11 12
000
FTUS45 KREV 300526
TAFMMH
TAF
KMMH 300526Z 3006/3106 VRB04KT P6SM SCT180
     FM301700 12009KT P6SM FEW080
     FM302000 17011G20KT P6SM SCT080 SCT180
     FM302300 25012G20KT P6SM VCTS SCT070CB BKN140
     FM310200 28008G16KT P6SM SCT140 BKN180=

USA.gov is the U.S. government's official web portal to all federal, state and local government web resources and services.